sensor_id;sensor_type;location;lat;lon;timestamp;P1;durP1;ratioP1;P2;durP2;ratioP2
66761;SDS011;53672;48.176;16.338;2023-12-28T00:02:31;23.70;;;11.55;;
66761;SDS011;53672;48.176;16.338;2023-12-28T00:07:34;25.47;;;11.53;;
66761;SDS011;53672;48.176;16.338;2023-12-28T00:12:36;27.48;;;11.77;;
66761;SDS011;53672;48.176;16.338;2023-12-28T00:17:38;26.98;;;11.98;;
66761;SDS011;53672;48.176;16.338;2023-12-28T00:22:40;27.60;;;12.15;;
66761;SDS011;53672;48.176;16.338;2023-12-28T00:27:42;24.70;;;11.50;;
66761;SDS011;53672;48.176;16.338;2023-12-28T00:32:45;26.17;;;11.93;;
66761;SDS011;53672;48.176;16.338;2023-12-28T00:37:48;27.90;;;12.13;;
66761;SDS011;53672;48.176;16.338;2023-12-28T00:42:50;30.30;;;12.60;;
66761;SDS011;53672;48.176;16.338;2023-12-28T00:47:51;27.95;;;12.32;;
66761;SDS011;53672;48.176;16.338;2023-12-28T00:52:57;29.38;;;11.73;;
66761;SDS011;53672;48.176;16.338;2023-12-28T00:57:58;24.00;;;11.77;;
66761;SDS011;53672;48.176;16.338;2023-12-28T01:03:00;26.17;;;12.48;;
66761;SDS011;53672;48.176;16.338;2023-12-28T01:08:03;28.63;;;12.43;;
66761;SDS011;53672;48.176;16.338;2023-12-28T01:13:05;27.17;;;12.50;;
66761;SDS011;53672;48.176;16.338;2023-12-28T01:18:07;28.35;;;12.68;;
66761;SDS011;53672;48.176;16.338;2023-12-28T01:23:10;27.50;;;12.00;;
66761;SDS011;53672;48.176;16.338;2023-12-28T01:28:11;25.83;;;11.15;;
66761;SDS011;53672;48.176;16.338;2023-12-28T01:33:13;24.67;;;11.70;;
66761;SDS011;53672;48.176;16.338;2023-12-28T01:38:16;22.73;;;10.88;;
66761;SDS011;53672;48.176;16.338;2023-12-28T01:43:18;26.60;;;11.60;;
66761;SDS011;53672;48.176;16.338;2023-12-28T01:48:19;29.10;;;11.53;;
66761;SDS011;53672;48.176;16.338;2023-12-28T01:53:23;25.02;;;11.73;;
66761;SDS011;53672;48.176;16.338;2023-12-28T01:58:24;28.00;;;12.35;;
66761;SDS011;53672;48.176;16.338;2023-12-28T02:03:29;33.00;;;14.00;;
66761;SDS011;53672;48.176;16.338;2023-12-28T02:08:33;40.05;;;15.32;;
66761;SDS011;53672;48.176;16.338;2023-12-28T02:13:35;34.70;;;14.67;;
66761;SDS011;53672;48.176;16.338;2023-12-28T02:18:37;32.08;;;15.30;;
66761;SDS011;53672;48.176;16.338;2023-12-28T02:23:47;37.72;;;14.45;;
66761;SDS011;53672;48.176;16.338;2023-12-28T02:28:50;35.05;;;14.93;;
66761;SDS011;53672;48.176;16.338;2023-12-28T02:33:53;33.17;;;14.35;;
66761;SDS011;53672;48.176;16.338;2023-12-28T02:39:00;38.53;;;15.53;;
66761;SDS011;53672;48.176;16.338;2023-12-28T02:44:04;37.90;;;15.52;;
66761;SDS011;53672;48.176;16.338;2023-12-28T02:49:06;40.33;;;15.52;;
66761;SDS011;53672;48.176;16.338;2023-12-28T02:54:10;37.17;;;15.05;;
66761;SDS011;53672;48.176;16.338;2023-12-28T02:59:13;44.55;;;16.25;;
66761;SDS011;53672;48.176;16.338;2023-12-28T03:04:15;39.87;;;15.50;;
66761;SDS011;53672;48.176;16.338;2023-12-28T03:09:16;39.53;;;14.68;;
66761;SDS011;53672;48.176;16.338;2023-12-28T03:14:19;39.25;;;16.27;;
66761;SDS011;53672;48.176;16.338;2023-12-28T03:19:22;35.42;;;15.88;;
66761;SDS011;53672;48.176;16.338;2023-12-28T03:24:23;38.92;;;15.38;;
66761;SDS011;53672;48.176;16.338;2023-12-28T03:29:26;36.07;;;15.40;;
66761;SDS011;53672;48.176;16.338;2023-12-28T03:34:29;40.80;;;15.88;;
66761;SDS011;53672;48.176;16.338;2023-12-28T03:39:30;37.33;;;14.93;;
66761;SDS011;53672;48.176;16.338;2023-12-28T03:44:34;33.35;;;14.25;;
66761;SDS011;53672;48.176;16.338;2023-12-28T03:49:36;37.90;;;16.05;;
66761;SDS011;53672;48.176;16.338;2023-12-28T03:54:37;45.20;;;15.63;;
66761;SDS011;53672;48.176;16.338;2023-12-28T03:59:42;45.17;;;14.98;;
66761;SDS011;53672;48.176;16.338;2023-12-28T04:04:43;40.42;;;16.38;;
66761;SDS011;53672;48.176;16.338;2023-12-28T04:09:45;46.75;;;15.88;;
66761;SDS011;53672;48.176;16.338;2023-12-28T04:14:48;48.17;;;16.00;;
66761;SDS011;53672;48.176;16.338;2023-12-28T04:19:49;37.13;;;14.73;;
66761;SDS011;53672;48.176;16.338;2023-12-28T04:24:52;41.13;;;15.68;;
66761;SDS011;53672;48.176;16.338;2023-12-28T04:29:54;41.72;;;14.93;;
66761;SDS011;53672;48.176;16.338;2023-12-28T04:34:56;41.33;;;16.17;;
66761;SDS011;53672;48.176;16.338;2023-12-28T04:39:58;49.70;;;16.23;;
66761;SDS011;53672;48.176;16.338;2023-12-28T04:45:01;40.87;;;15.57;;
66761;SDS011;53672;48.176;16.338;2023-12-28T04:50:03;45.17;;;15.60;;
66761;SDS011;53672;48.176;16.338;2023-12-28T04:55:05;40.47;;;15.32;;
66761;SDS011;53672;48.176;16.338;2023-12-28T05:00:09;55.38;;;15.55;;
66761;SDS011;53672;48.176;16.338;2023-12-28T05:05:11;38.47;;;14.57;;
66761;SDS011;53672;48.176;16.338;2023-12-28T05:10:13;36.60;;;14.00;;
66761;SDS011;53672;48.176;16.338;2023-12-28T05:15:16;32.80;;;13.50;;
66761;SDS011;53672;48.176;16.338;2023-12-28T05:20:19;37.35;;;14.52;;
66761;SDS011;53672;48.176;16.338;2023-12-28T05:25:21;37.45;;;14.38;;
66761;SDS011;53672;48.176;16.338;2023-12-28T05:30:23;35.70;;;13.40;;
66761;SDS011;53672;48.176;16.338;2023-12-28T05:35:25;34.30;;;13.40;;
66761;SDS011;53672;48.176;16.338;2023-12-28T05:40:27;38.58;;;12.93;;
66761;SDS011;53672;48.176;16.338;2023-12-28T05:45:29;42.20;;;12.98;;
66761;SDS011;53672;48.176;16.338;2023-12-28T05:50:31;43.28;;;14.70;;
66761;SDS011;53672;48.176;16.338;2023-12-28T05:55:33;39.30;;;14.02;;
66761;SDS011;53672;48.176;16.338;2023-12-28T06:00:36;41.00;;;14.87;;
66761;SDS011;53672;48.176;16.338;2023-12-28T06:05:38;38.95;;;15.63;;
66761;SDS011;53672;48.176;16.338;2023-12-28T06:10:40;42.72;;;15.57;;
66761;SDS011;53672;48.176;16.338;2023-12-28T06:15:43;37.38;;;14.35;;
66761;SDS011;53672;48.176;16.338;2023-12-28T06:20:45;37.30;;;13.90;;
66761;SDS011;53672;48.176;16.338;2023-12-28T06:25:47;37.77;;;14.47;;
66761;SDS011;53672;48.176;16.338;2023-12-28T06:30:50;37.65;;;14.13;;
66761;SDS011;53672;48.176;16.338;2023-12-28T06:35:52;34.30;;;12.90;;
66761;SDS011;53672;48.176;16.338;2023-12-28T06:40:54;38.83;;;13.77;;
66761;SDS011;53672;48.176;16.338;2023-12-28T06:45:57;37.13;;;14.20;;
66761;SDS011;53672;48.176;16.338;2023-12-28T06:50:58;37.10;;;13.90;;
66761;SDS011;53672;48.176;16.338;2023-12-28T06:56:00;39.60;;;14.40;;
66761;SDS011;53672;48.176;16.338;2023-12-28T07:01:04;41.80;;;14.82;;
66761;SDS011;53672;48.176;16.338;2023-12-28T07:06:05;54.95;;;17.60;;
66761;SDS011;53672;48.176;16.338;2023-12-28T07:11:09;40.78;;;14.70;;
66761;SDS011;53672;48.176;16.338;2023-12-28T07:16:12;37.87;;;14.00;;
66761;SDS011;53672;48.176;16.338;2023-12-28T07:21:14;56.15;;;15.80;;
66761;SDS011;53672;48.176;16.338;2023-12-28T07:26:16;50.55;;;16.83;;
66761;SDS011;53672;48.176;16.338;2023-12-28T07:31:25;55.97;;;17.40;;
66761;SDS011;53672;48.176;16.338;2023-12-28T07:36:27;50.40;;;17.00;;
66761;SDS011;53672;48.176;16.338;2023-12-28T07:41:29;56.60;;;15.10;;
66761;SDS011;53672;48.176;16.338;2023-12-28T07:46:32;56.33;;;15.75;;
66761;SDS011;53672;48.176;16.338;2023-12-28T07:51:34;58.58;;;14.98;;
66761;SDS011;53672;48.176;16.338;2023-12-28T07:56:35;60.58;;;14.73;;
66761;SDS011;53672;48.176;16.338;2023-12-28T08:01:38;61.80;;;16.45;;
66761;SDS011;53672;48.176;16.338;2023-12-28T08:06:40;67.57;;;14.33;;
66761;SDS011;53672;48.176;16.338;2023-12-28T08:11:41;49.78;;;14.20;;
66761;SDS011;53672;48.176;16.338;2023-12-28T08:16:44;48.88;;;13.23;;
66761;SDS011;53672;48.176;16.338;2023-12-28T08:21:46;48.25;;;13.48;;
66761;SDS011;53672;48.176;16.338;2023-12-28T08:26:47;45.97;;;14.50;;
66761;SDS011;53672;48.176;16.338;2023-12-28T08:31:50;43.47;;;13.20;;
66761;SDS011;53672;48.176;16.338;2023-12-28T08:36:52;47.40;;;13.10;;
66761;SDS011;53672;48.176;16.338;2023-12-28T08:41:55;46.17;;;13.32;;
66761;SDS011;53672;48.176;16.338;2023-12-28T08:46:58;33.40;;;10.85;;
66761;SDS011;53672;48.176;16.338;2023-12-28T08:51:59;40.80;;;13.43;;
66761;SDS011;53672;48.176;16.338;2023-12-28T08:57:01;38.50;;;13.00;;
66761;SDS011;53672;48.176;16.338;2023-12-28T09:02:04;40.05;;;13.85;;
66761;SDS011;53672;48.176;16.338;2023-12-28T09:07:07;37.10;;;11.88;;
66761;SDS011;53672;48.176;16.338;2023-12-28T09:12:09;38.80;;;13.10;;
66761;SDS011;53672;48.176;16.338;2023-12-28T09:17:12;36.78;;;12.82;;
66761;SDS011;53672;48.176;16.338;2023-12-28T09:22:14;37.03;;;12.43;;
66761;SDS011;53672;48.176;16.338;2023-12-28T09:27:16;34.72;;;11.90;;
66761;SDS011;53672;48.176;16.338;2023-12-28T09:32:19;34.70;;;12.38;;
66761;SDS011;53672;48.176;16.338;2023-12-28T09:37:20;29.88;;;11.30;;
66761;SDS011;53672;48.176;16.338;2023-12-28T09:42:23;31.80;;;11.25;;
66761;SDS011;53672;48.176;16.338;2023-12-28T09:47:28;37.97;;;13.03;;
66761;SDS011;53672;48.176;16.338;2023-12-28T09:52:33;33.47;;;12.30;;
66761;SDS011;53672;48.176;16.338;2023-12-28T09:57:35;32.88;;;11.80;;
66761;SDS011;53672;48.176;16.338;2023-12-28T10:02:38;35.97;;;12.50;;
66761;SDS011;53672;48.176;16.338;2023-12-28T10:07:41;32.28;;;11.73;;
66761;SDS011;53672;48.176;16.338;2023-12-28T10:12:43;34.17;;;11.20;;
66761;SDS011;53672;48.176;16.338;2023-12-28T10:17:48;32.88;;;12.02;;
66761;SDS011;53672;48.176;16.338;2023-12-28T10:22:50;32.42;;;12.00;;
66761;SDS011;53672;48.176;16.338;2023-12-28T10:27:52;37.00;;;12.77;;
66761;SDS011;53672;48.176;16.338;2023-12-28T10:32:55;32.88;;;12.00;;
66761;SDS011;53672;48.176;16.338;2023-12-28T10:37:57;32.10;;;11.30;;
66761;SDS011;53672;48.176;16.338;2023-12-28T10:43:04;33.95;;;12.23;;
66761;SDS011;53672;48.176;16.338;2023-12-28T10:48:09;31.95;;;11.15;;
66761;SDS011;53672;48.176;16.338;2023-12-28T10:53:15;36.85;;;13.23;;
66761;SDS011;53672;48.176;16.338;2023-12-28T10:58:28;33.88;;;11.57;;
66761;SDS011;53672;48.176;16.338;2023-12-28T11:03:40;33.37;;;11.53;;
66761;SDS011;53672;48.176;16.338;2023-12-28T11:08:43;35.20;;;12.00;;
66761;SDS011;53672;48.176;16.338;2023-12-28T11:13:50;31.42;;;11.68;;
66761;SDS011;53672;48.176;16.338;2023-12-28T11:18:54;31.27;;;11.15;;
66761;SDS011;53672;48.176;16.338;2023-12-28T11:23:57;33.30;;;11.38;;
66761;SDS011;53672;48.176;16.338;2023-12-28T11:29:02;33.13;;;12.10;;
66761;SDS011;53672;48.176;16.338;2023-12-28T11:34:05;28.90;;;10.65;;
66761;SDS011;53672;48.176;16.338;2023-12-28T11:39:07;32.80;;;11.25;;
66761;SDS011;53672;48.176;16.338;2023-12-28T11:44:09;28.50;;;10.05;;
66761;SDS011;53672;48.176;16.338;2023-12-28T11:49:13;27.52;;;10.85;;
66761;SDS011;53672;48.176;16.338;2023-12-28T11:54:15;28.07;;;10.07;;
66761;SDS011;53672;48.176;16.338;2023-12-28T11:59:16;28.33;;;10.85;;
66761;SDS011;53672;48.176;16.338;2023-12-28T12:04:19;32.00;;;11.10;;
66761;SDS011;53672;48.176;16.338;2023-12-28T12:09:22;29.83;;;10.68;;
66761;SDS011;53672;48.176;16.338;2023-12-28T12:14:23;28.50;;;10.25;;
66761;SDS011;53672;48.176;16.338;2023-12-28T12:19:26;31.17;;;11.10;;
66761;SDS011;53672;48.176;16.338;2023-12-28T12:24:29;29.10;;;10.18;;
66761;SDS011;53672;48.176;16.338;2023-12-28T12:29:32;29.63;;;10.48;;
66761;SDS011;53672;48.176;16.338;2023-12-28T12:34:35;25.90;;;10.05;;
66761;SDS011;53672;48.176;16.338;2023-12-28T12:39:39;30.23;;;11.10;;
66761;SDS011;53672;48.176;16.338;2023-12-28T12:44:40;26.83;;;10.47;;
66761;SDS011;53672;48.176;16.338;2023-12-28T12:49:43;28.48;;;10.55;;
66761;SDS011;53672;48.176;16.338;2023-12-28T12:54:52;27.88;;;10.57;;
66761;SDS011;53672;48.176;16.338;2023-12-28T12:59:54;25.30;;;9.73;;
66761;SDS011;53672;48.176;16.338;2023-12-28T13:04:57;27.88;;;11.35;;
66761;SDS011;53672;48.176;16.338;2023-12-28T13:09:59;24.43;;;9.90;;
66761;SDS011;53672;48.176;16.338;2023-12-28T13:15:01;29.88;;;10.13;;
66761;SDS011;53672;48.176;16.338;2023-12-28T13:20:04;23.55;;;9.02;;
66761;SDS011;53672;48.176;16.338;2023-12-28T13:25:07;23.90;;;9.18;;
66761;SDS011;53672;48.176;16.338;2023-12-28T13:30:09;27.58;;;10.13;;
66761;SDS011;53672;48.176;16.338;2023-12-28T13:35:13;27.53;;;10.27;;
66761;SDS011;53672;48.176;16.338;2023-12-28T13:40:15;22.98;;;9.80;;
66761;SDS011;53672;48.176;16.338;2023-12-28T13:45:17;26.30;;;9.77;;
66761;SDS011;53672;48.176;16.338;2023-12-28T13:50:20;26.98;;;10.82;;
66761;SDS011;53672;48.176;16.338;2023-12-28T13:55:22;24.88;;;10.32;;
66761;SDS011;53672;48.176;16.338;2023-12-28T14:00:23;28.53;;;10.67;;
66761;SDS011;53672;48.176;16.338;2023-12-28T14:05:27;33.97;;;11.93;;
66761;SDS011;53672;48.176;16.338;2023-12-28T14:10:28;31.80;;;11.32;;
66761;SDS011;53672;48.176;16.338;2023-12-28T14:15:30;29.77;;;11.82;;
66761;SDS011;53672;48.176;16.338;2023-12-28T14:20:33;33.33;;;12.70;;
66761;SDS011;53672;48.176;16.338;2023-12-28T14:25:34;33.87;;;12.70;;
66761;SDS011;53672;48.176;16.338;2023-12-28T14:30:37;37.15;;;13.48;;
66761;SDS011;53672;48.176;16.338;2023-12-28T14:35:40;36.33;;;12.80;;
66761;SDS011;53672;48.176;16.338;2023-12-28T14:40:42;36.75;;;13.35;;
66761;SDS011;53672;48.176;16.338;2023-12-28T14:45:44;37.35;;;13.73;;
66761;SDS011;53672;48.176;16.338;2023-12-28T14:50:48;36.23;;;13.67;;
66761;SDS011;53672;48.176;16.338;2023-12-28T14:55:49;42.67;;;15.05;;
66761;SDS011;53672;48.176;16.338;2023-12-28T15:00:51;41.70;;;14.15;;
66761;SDS011;53672;48.176;16.338;2023-12-28T15:05:55;44.72;;;14.68;;
66761;SDS011;53672;48.176;16.338;2023-12-28T15:10:57;39.50;;;14.35;;
66761;SDS011;53672;48.176;16.338;2023-12-28T15:15:59;44.60;;;14.80;;
66761;SDS011;53672;48.176;16.338;2023-12-28T15:21:05;48.13;;;15.15;;
66761;SDS011;53672;48.176;16.338;2023-12-28T15:26:07;61.53;;;15.10;;
66761;SDS011;53672;48.176;16.338;2023-12-28T15:31:09;93.47;;;17.10;;
66761;SDS011;53672;48.176;16.338;2023-12-28T15:36:12;72.43;;;16.95;;
66761;SDS011;53672;48.176;16.338;2023-12-28T15:41:13;59.23;;;14.53;;
66761;SDS011;53672;48.176;16.338;2023-12-28T15:46:15;106.72;;;16.58;;
66761;SDS011;53672;48.176;16.338;2023-12-28T15:51:18;136.95;;;18.42;;
66761;SDS011;53672;48.176;16.338;2023-12-28T15:56:20;84.75;;;16.40;;
66761;SDS011;53672;48.176;16.338;2023-12-28T16:01:21;72.22;;;15.95;;
66761;SDS011;53672;48.176;16.338;2023-12-28T16:06:24;91.07;;;16.13;;
66761;SDS011;53672;48.176;16.338;2023-12-28T16:11:26;57.05;;;15.38;;
66761;SDS011;53672;48.176;16.338;2023-12-28T16:16:27;129.15;;;16.98;;
66761;SDS011;53672;48.176;16.338;2023-12-28T16:21:31;83.72;;;16.10;;
66761;SDS011;53672;48.176;16.338;2023-12-28T16:26:33;67.60;;;15.88;;
66761;SDS011;53672;48.176;16.338;2023-12-28T16:31:35;109.50;;;16.70;;
66761;SDS011;53672;48.176;16.338;2023-12-28T16:36:38;59.63;;;15.45;;
66761;SDS011;53672;48.176;16.338;2023-12-28T16:41:40;104.50;;;15.85;;
66761;SDS011;53672;48.176;16.338;2023-12-28T16:46:42;80.38;;;13.75;;
66761;SDS011;53672;48.176;16.338;2023-12-28T16:51:46;53.80;;;14.10;;
66761;SDS011;53672;48.176;16.338;2023-12-28T16:56:49;44.40;;;13.70;;
66761;SDS011;53672;48.176;16.338;2023-12-28T17:01:50;50.70;;;13.82;;
66761;SDS011;53672;48.176;16.338;2023-12-28T17:06:53;71.65;;;16.60;;
66761;SDS011;53672;48.176;16.338;2023-12-28T17:11:57;57.00;;;16.90;;
66761;SDS011;53672;48.176;16.338;2023-12-28T17:17:13;68.78;;;14.55;;
66761;SDS011;53672;48.176;16.338;2023-12-28T17:22:16;75.37;;;16.27;;
66761;SDS011;53672;48.176;16.338;2023-12-28T17:27:23;47.78;;;13.32;;
66761;SDS011;53672;48.176;16.338;2023-12-28T17:32:30;72.60;;;15.25;;
66761;SDS011;53672;48.176;16.338;2023-12-28T17:37:35;45.03;;;15.07;;
66761;SDS011;53672;48.176;16.338;2023-12-28T17:42:38;84.45;;;15.90;;
66761;SDS011;53672;48.176;16.338;2023-12-28T17:47:42;55.37;;;15.07;;
66761;SDS011;53672;48.176;16.338;2023-12-28T17:52:51;72.43;;;16.98;;
66761;SDS011;53672;48.176;16.338;2023-12-28T17:57:53;67.45;;;16.58;;
66761;SDS011;53672;48.176;16.338;2023-12-28T18:02:54;50.03;;;17.50;;
66761;SDS011;53672;48.176;16.338;2023-12-28T18:07:58;45.88;;;15.93;;
66761;SDS011;53672;48.176;16.338;2023-12-28T18:13:00;66.23;;;16.63;;
66761;SDS011;53672;48.176;16.338;2023-12-28T18:18:01;73.00;;;22.35;;
66761;SDS011;53672;48.176;16.338;2023-12-28T18:23:04;41.13;;;16.48;;
66761;SDS011;53672;48.176;16.338;2023-12-28T18:28:06;50.97;;;16.02;;
66761;SDS011;53672;48.176;16.338;2023-12-28T18:33:08;71.82;;;18.08;;
66761;SDS011;53672;48.176;16.338;2023-12-28T18:38:11;54.83;;;17.50;;
66761;SDS011;53672;48.176;16.338;2023-12-28T18:43:13;51.58;;;18.63;;
66761;SDS011;53672;48.176;16.338;2023-12-28T18:48:16;46.38;;;17.52;;
66761;SDS011;53672;48.176;16.338;2023-12-28T18:53:19;49.75;;;17.45;;
66761;SDS011;53672;48.176;16.338;2023-12-28T18:58:21;55.38;;;17.67;;
66761;SDS011;53672;48.176;16.338;2023-12-28T19:03:23;59.07;;;18.10;;
66761;SDS011;53672;48.176;16.338;2023-12-28T19:08:29;50.58;;;18.77;;
66761;SDS011;53672;48.176;16.338;2023-12-28T19:13:32;51.33;;;18.88;;
66761;SDS011;53672;48.176;16.338;2023-12-28T19:18:35;53.83;;;19.95;;
66761;SDS011;53672;48.176;16.338;2023-12-28T19:23:39;51.72;;;19.17;;
66761;SDS011;53672;48.176;16.338;2023-12-28T19:28:42;48.77;;;20.03;;
66761;SDS011;53672;48.176;16.338;2023-12-28T19:33:45;49.90;;;20.17;;
66761;SDS011;53672;48.176;16.338;2023-12-28T19:38:50;48.72;;;20.17;;
66761;SDS011;53672;48.176;16.338;2023-12-28T19:43:54;45.33;;;19.73;;
66761;SDS011;53672;48.176;16.338;2023-12-28T19:48:57;79.43;;;19.05;;
66761;SDS011;53672;48.176;16.338;2023-12-28T19:54:04;59.23;;;17.83;;
66761;SDS011;53672;48.176;16.338;2023-12-28T19:59:07;49.90;;;18.65;;
66761;SDS011;53672;48.176;16.338;2023-12-28T20:04:10;42.47;;;17.42;;
66761;SDS011;53672;48.176;16.338;2023-12-28T20:09:15;48.10;;;16.85;;
66761;SDS011;53672;48.176;16.338;2023-12-28T20:14:18;42.50;;;17.25;;
66761;SDS011;53672;48.176;16.338;2023-12-28T20:19:20;42.13;;;17.27;;
66761;SDS011;53672;48.176;16.338;2023-12-28T20:24:24;44.55;;;16.35;;
66761;SDS011;53672;48.176;16.338;2023-12-28T20:29:29;44.35;;;16.65;;
66761;SDS011;53672;48.176;16.338;2023-12-28T20:34:31;45.20;;;17.15;;
66761;SDS011;53672;48.176;16.338;2023-12-28T20:39:36;38.75;;;16.00;;
66761;SDS011;53672;48.176;16.338;2023-12-28T20:44:38;41.60;;;17.17;;
66761;SDS011;53672;48.176;16.338;2023-12-28T20:49:43;39.35;;;16.38;;
66761;SDS011;53672;48.176;16.338;2023-12-28T20:54:48;47.10;;;17.60;;
66761;SDS011;53672;48.176;16.338;2023-12-28T20:59:51;35.50;;;14.82;;
66761;SDS011;53672;48.176;16.338;2023-12-28T21:04:54;35.13;;;14.93;;
66761;SDS011;53672;48.176;16.338;2023-12-28T21:09:57;40.03;;;17.43;;
66761;SDS011;53672;48.176;16.338;2023-12-28T21:14:58;37.75;;;15.20;;
66761;SDS011;53672;48.176;16.338;2023-12-28T21:20:00;37.95;;;15.13;;
66761;SDS011;53672;48.176;16.338;2023-12-28T21:25:04;33.08;;;14.15;;
66761;SDS011;53672;48.176;16.338;2023-12-28T21:30:07;33.15;;;14.45;;
66761;SDS011;53672;48.176;16.338;2023-12-28T21:35:10;34.43;;;14.53;;
66761;SDS011;53672;48.176;16.338;2023-12-28T21:40:14;32.70;;;14.05;;
66761;SDS011;53672;48.176;16.338;2023-12-28T21:45:17;32.40;;;14.15;;
66761;SDS011;53672;48.176;16.338;2023-12-28T21:50:18;29.88;;;14.18;;
66761;SDS011;53672;48.176;16.338;2023-12-28T21:55:21;28.80;;;13.10;;
66761;SDS011;53672;48.176;16.338;2023-12-28T22:00:23;30.83;;;12.93;;
66761;SDS011;53672;48.176;16.338;2023-12-28T22:05:25;29.95;;;13.38;;
66761;SDS011;53672;48.176;16.338;2023-12-28T22:10:28;28.60;;;13.10;;
66761;SDS011;53672;48.176;16.338;2023-12-28T22:15:30;29.05;;;13.00;;
66761;SDS011;53672;48.176;16.338;2023-12-28T22:20:32;29.52;;;13.38;;
66761;SDS011;53672;48.176;16.338;2023-12-28T22:25:35;29.77;;;12.73;;
66761;SDS011;53672;48.176;16.338;2023-12-28T22:30:36;29.80;;;12.98;;
66761;SDS011;53672;48.176;16.338;2023-12-28T22:35:38;30.27;;;13.23;;
66761;SDS011;53672;48.176;16.338;2023-12-28T22:40:41;33.28;;;13.07;;
66761;SDS011;53672;48.176;16.338;2023-12-28T22:45:43;29.42;;;14.02;;
66761;SDS011;53672;48.176;16.338;2023-12-28T22:50:44;31.97;;;13.57;;
66761;SDS011;53672;48.176;16.338;2023-12-28T22:55:47;28.80;;;12.95;;
66761;SDS011;53672;48.176;16.338;2023-12-28T23:00:49;29.95;;;13.40;;
66761;SDS011;53672;48.176;16.338;2023-12-28T23:05:50;33.25;;;13.35;;
66761;SDS011;53672;48.176;16.338;2023-12-28T23:10:53;29.55;;;13.18;;
66761;SDS011;53672;48.176;16.338;2023-12-28T23:15:57;27.63;;;12.43;;
66761;SDS011;53672;48.176;16.338;2023-12-28T23:20:59;30.30;;;13.15;;
66761;SDS011;53672;48.176;16.338;2023-12-28T23:26:02;30.15;;;13.07;;
66761;SDS011;53672;48.176;16.338;2023-12-28T23:31:04;27.05;;;12.98;;
66761;SDS011;53672;48.176;16.338;2023-12-28T23:36:06;28.75;;;13.25;;
66761;SDS011;53672;48.176;16.338;2023-12-28T23:41:10;30.97;;;13.60;;
66761;SDS011;53672;48.176;16.338;2023-12-28T23:46:12;29.55;;;14.02;;
66761;SDS011;53672;48.176;16.338;2023-12-28T23:51:13;28.27;;;13.52;;
66761;SDS011;53672;48.176;16.338;2023-12-28T23:56:19;28.92;;;13.20;;
